sensor_id;sensor_type;location;lat;lon;timestamp;temperature;humidity
28087;DHT22;15392;48.912;8.380;2023-02-28T00:01:04;7.50;42.10
28087;DHT22;15392;48.912;8.380;2023-02-28T00:03:30;7.50;42.10
28087;DHT22;15392;48.912;8.380;2023-02-28T00:05:55;7.50;42.20
28087;DHT22;15392;48.912;8.380;2023-02-28T00:08:21;7.50;42.20
28087;DHT22;15392;48.912;8.380;2023-02-28T00:10:47;7.50;42.20
28087;DHT22;15392;48.912;8.380;2023-02-28T00:13:12;7.40;42.20
28087;DHT22;15392;48.912;8.380;2023-02-28T00:15:38;7.40;42.20
28087;DHT22;15392;48.912;8.380;2023-02-28T00:18:07;7.40;42.30
28087;DHT22;15392;48.912;8.380;2023-02-28T00:20:33;7.40;42.20
28087;DHT22;15392;48.912;8.380;2023-02-28T00:22:58;7.40;42.30
28087;DHT22;15392;48.912;8.380;2023-02-28T00:25:25;7.40;42.40
28087;DHT22;15392;48.912;8.380;2023-02-28T00:27:51;7.40;42.30
28087;DHT22;15392;48.912;8.380;2023-02-28T00:30:20;7.40;42.40
28087;DHT22;15392;48.912;8.380;2023-02-28T00:32:46;7.30;42.30
28087;DHT22;15392;48.912;8.380;2023-02-28T00:35:12;7.30;42.30
28087;DHT22;15392;48.912;8.380;2023-02-28T00:37:38;7.30;42.40
28087;DHT22;15392;48.912;8.380;2023-02-28T00:40:06;7.30;42.40
28087;DHT22;15392;48.912;8.380;2023-02-28T00:42:33;7.30;42.40
28087;DHT22;15392;48.912;8.380;2023-02-28T00:45:00;7.30;42.40
28087;DHT22;15392;48.912;8.380;2023-02-28T00:47:26;7.30;42.40
28087;DHT22;15392;48.912;8.380;2023-02-28T00:49:52;7.20;42.40
28087;DHT22;15392;48.912;8.380;2023-02-28T00:52:17;7.20;42.40
28087;DHT22;15392;48.912;8.380;2023-02-28T00:54:43;7.20;42.40
28087;DHT22;15392;48.912;8.380;2023-02-28T00:57:09;7.20;42.50
28087;DHT22;15392;48.912;8.380;2023-02-28T00:59:35;7.20;42.50
28087;DHT22;15392;48.912;8.380;2023-02-28T01:02:00;7.20;42.50
28087;DHT22;15392;48.912;8.380;2023-02-28T01:04:26;7.10;42.50
28087;DHT22;15392;48.912;8.380;2023-02-28T01:06:52;7.10;42.50
28087;DHT22;15392;48.912;8.380;2023-02-28T01:09:18;7.10;42.60
28087;DHT22;15392;48.912;8.380;2023-02-28T01:11:43;7.10;42.60
28087;DHT22;15392;48.912;8.380;2023-02-28T01:14:15;7.10;42.60
28087;DHT22;15392;48.912;8.380;2023-02-28T01:16:43;7.10;42.60
28087;DHT22;15392;48.912;8.380;2023-02-28T01:19:09;7.10;42.60
28087;DHT22;15392;48.912;8.380;2023-02-28T01:21:35;7.10;42.60
28087;DHT22;15392;48.912;8.380;2023-02-28T01:24:05;7.00;42.60
28087;DHT22;15392;48.912;8.380;2023-02-28T01:26:31;7.00;42.60
28087;DHT22;15392;48.912;8.380;2023-02-28T01:28:57;7.00;42.60
28087;DHT22;15392;48.912;8.380;2023-02-28T01:31:23;7.00;42.70
28087;DHT22;15392;48.912;8.380;2023-02-28T01:33:49;7.00;42.70
28087;DHT22;15392;48.912;8.380;2023-02-28T01:36:21;7.00;42.70
28087;DHT22;15392;48.912;8.380;2023-02-28T01:38:49;7.00;42.70
28087;DHT22;15392;48.912;8.380;2023-02-28T01:41:19;7.00;42.70
28087;DHT22;15392;48.912;8.380;2023-02-28T01:46:13;6.90;42.70
28087;DHT22;15392;48.912;8.380;2023-02-28T01:48:51;6.90;42.80
28087;DHT22;15392;48.912;8.380;2023-02-28T01:51:22;6.90;42.70
28087;DHT22;15392;48.912;8.380;2023-02-28T01:54:20;6.90;42.60
28087;DHT22;15392;48.912;8.380;2023-02-28T01:56:59;6.90;42.80
28087;DHT22;15392;48.912;8.380;2023-02-28T01:59:38;6.90;42.80
28087;DHT22;15392;48.912;8.380;2023-02-28T02:02:12;6.80;42.80
28087;DHT22;15392;48.912;8.380;2023-02-28T02:04:44;6.80;42.90
28087;DHT22;15392;48.912;8.380;2023-02-28T02:07:16;6.80;43.60
28087;DHT22;15392;48.912;8.380;2023-02-28T02:09:42;6.80;43.00
28087;DHT22;15392;48.912;8.380;2023-02-28T02:12:23;6.80;43.00
28087;DHT22;15392;48.912;8.380;2023-02-28T02:15:09;6.80;42.90
28087;DHT22;15392;48.912;8.380;2023-02-28T02:17:47;6.80;42.90
28087;DHT22;15392;48.912;8.380;2023-02-28T02:23:47;6.80;42.90
28087;DHT22;15392;48.912;8.380;2023-02-28T02:26:35;6.80;43.00
28087;DHT22;15392;48.912;8.380;2023-02-28T02:36:27;6.70;43.00
28087;DHT22;15392;48.912;8.380;2023-02-28T02:46:33;6.60;43.20
28087;DHT22;15392;48.912;8.380;2023-02-28T02:49:04;6.60;43.10
28087;DHT22;15392;48.912;8.380;2023-02-28T02:51:32;6.60;43.20
28087;DHT22;15392;48.912;8.380;2023-02-28T02:54:21;6.60;43.20
28087;DHT22;15392;48.912;8.380;2023-02-28T02:56:49;6.60;43.20
28087;DHT22;15392;48.912;8.380;2023-02-28T02:59:20;6.60;43.30
28087;DHT22;15392;48.912;8.380;2023-02-28T03:01:51;6.60;43.30
28087;DHT22;15392;48.912;8.380;2023-02-28T03:04:21;6.60;43.40
28087;DHT22;15392;48.912;8.380;2023-02-28T03:06:49;6.60;43.40
28087;DHT22;15392;48.912;8.380;2023-02-28T03:09:24;6.60;43.40
28087;DHT22;15392;48.912;8.380;2023-02-28T03:11:50;6.60;43.40
28087;DHT22;15392;48.912;8.380;2023-02-28T03:15:14;6.60;43.40
28087;DHT22;15392;48.912;8.380;2023-02-28T03:20:48;6.60;43.40
28087;DHT22;15392;48.912;8.380;2023-02-28T03:23:41;6.60;43.50
28087;DHT22;15392;48.912;8.380;2023-02-28T03:26:19;6.60;43.50
28087;DHT22;15392;48.912;8.380;2023-02-28T03:28:52;6.60;43.60
28087;DHT22;15392;48.912;8.380;2023-02-28T03:31:38;6.60;43.60
28087;DHT22;15392;48.912;8.380;2023-02-28T03:34:12;6.60;43.60
28087;DHT22;15392;48.912;8.380;2023-02-28T03:36:46;6.50;43.60
28087;DHT22;15392;48.912;8.380;2023-02-28T03:39:19;6.50;43.60
28087;DHT22;15392;48.912;8.380;2023-02-28T03:42:02;6.50;43.60
28087;DHT22;15392;48.912;8.380;2023-02-28T03:44:39;6.60;43.60
28087;DHT22;15392;48.912;8.380;2023-02-28T03:47:39;6.50;43.60
28087;DHT22;15392;48.912;8.380;2023-02-28T03:50:15;6.50;43.70
28087;DHT22;15392;48.912;8.380;2023-02-28T03:52:51;6.50;43.70
28087;DHT22;15392;48.912;8.380;2023-02-28T03:55:25;6.50;43.70
28087;DHT22;15392;48.912;8.380;2023-02-28T03:57:56;6.60;43.80
28087;DHT22;15392;48.912;8.380;2023-02-28T04:00:39;6.60;43.80
28087;DHT22;15392;48.912;8.380;2023-02-28T04:03:09;6.60;43.80
28087;DHT22;15392;48.912;8.380;2023-02-28T04:05:50;6.60;43.80
28087;DHT22;15392;48.912;8.380;2023-02-28T04:08:17;6.60;43.80
28087;DHT22;15392;48.912;8.380;2023-02-28T04:10:45;6.60;43.90
28087;DHT22;15392;48.912;8.380;2023-02-28T04:13:13;6.60;43.90
28087;DHT22;15392;48.912;8.380;2023-02-28T04:15:39;6.60;43.90
28087;DHT22;15392;48.912;8.380;2023-02-28T04:18:05;6.60;43.90
28087;DHT22;15392;48.912;8.380;2023-02-28T04:20:31;6.60;44.20
28087;DHT22;15392;48.912;8.380;2023-02-28T04:22:57;6.60;43.90
28087;DHT22;15392;48.912;8.380;2023-02-28T04:25:22;6.70;44.00
28087;DHT22;15392;48.912;8.380;2023-02-28T04:27:48;6.70;44.00
28087;DHT22;15392;48.912;8.380;2023-02-28T04:30:14;6.70;43.90
28087;DHT22;15392;48.912;8.380;2023-02-28T04:32:40;6.70;43.90
28087;DHT22;15392;48.912;8.380;2023-02-28T04:35:06;6.70;43.90
28087;DHT22;15392;48.912;8.380;2023-02-28T04:37:32;6.70;43.90
28087;DHT22;15392;48.912;8.380;2023-02-28T04:40:00;6.70;43.90
28087;DHT22;15392;48.912;8.380;2023-02-28T04:42:26;6.70;43.90
28087;DHT22;15392;48.912;8.380;2023-02-28T04:44:52;6.70;43.90
28087;DHT22;15392;48.912;8.380;2023-02-28T04:47:18;6.70;43.90
28087;DHT22;15392;48.912;8.380;2023-02-28T04:49:44;6.60;43.80
28087;DHT22;15392;48.912;8.380;2023-02-28T04:52:09;6.70;43.80
28087;DHT22;15392;48.912;8.380;2023-02-28T04:54:35;6.60;43.80
28087;DHT22;15392;48.912;8.380;2023-02-28T04:57:03;6.70;43.80
28087;DHT22;15392;48.912;8.380;2023-02-28T04:59:29;6.60;43.70
28087;DHT22;15392;48.912;8.380;2023-02-28T05:01:55;6.60;43.70
28087;DHT22;15392;48.912;8.380;2023-02-28T05:04:21;6.60;43.70
28087;DHT22;15392;48.912;8.380;2023-02-28T05:06:46;6.60;43.80
28087;DHT22;15392;48.912;8.380;2023-02-28T05:09:12;6.60;43.80
28087;DHT22;15392;48.912;8.380;2023-02-28T05:11:39;6.60;43.80
28087;DHT22;15392;48.912;8.380;2023-02-28T05:14:09;6.60;43.80
28087;DHT22;15392;48.912;8.380;2023-02-28T05:16:37;6.50;43.80
28087;DHT22;15392;48.912;8.380;2023-02-28T05:19:03;6.50;43.80
28087;DHT22;15392;48.912;8.380;2023-02-28T05:21:34;6.50;43.80
28087;DHT22;15392;48.912;8.380;2023-02-28T05:24:07;6.50;43.90
28087;DHT22;15392;48.912;8.380;2023-02-28T05:26:37;6.50;43.90
28087;DHT22;15392;48.912;8.380;2023-02-28T05:29:04;6.50;44.00
28087;DHT22;15392;48.912;8.380;2023-02-28T05:31:30;6.50;43.90
28087;DHT22;15392;48.912;8.380;2023-02-28T05:33:56;6.50;44.00
28087;DHT22;15392;48.912;8.380;2023-02-28T05:36:22;6.50;44.00
28087;DHT22;15392;48.912;8.380;2023-02-28T05:38:49;6.50;44.00
28087;DHT22;15392;48.912;8.380;2023-02-28T05:41:16;6.50;44.00
28087;DHT22;15392;48.912;8.380;2023-02-28T05:43:42;6.50;44.00
28087;DHT22;15392;48.912;8.380;2023-02-28T05:46:10;6.50;44.00
28087;DHT22;15392;48.912;8.380;2023-02-28T05:48:37;6.50;44.10
28087;DHT22;15392;48.912;8.380;2023-02-28T05:51:04;6.50;44.10
28087;DHT22;15392;48.912;8.380;2023-02-28T05:53:32;6.50;44.10
28087;DHT22;15392;48.912;8.380;2023-02-28T05:55:58;6.50;44.10
28087;DHT22;15392;48.912;8.380;2023-02-28T05:58:25;6.50;44.10
28087;DHT22;15392;48.912;8.380;2023-02-28T06:00:56;6.50;44.10
28087;DHT22;15392;48.912;8.380;2023-02-28T06:03:23;6.50;44.10
28087;DHT22;15392;48.912;8.380;2023-02-28T06:05:49;6.50;44.10
28087;DHT22;15392;48.912;8.380;2023-02-28T06:08:16;6.50;44.20
28087;DHT22;15392;48.912;8.380;2023-02-28T06:10:41;6.50;44.20
28087;DHT22;15392;48.912;8.380;2023-02-28T06:13:07;6.50;44.20
28087;DHT22;15392;48.912;8.380;2023-02-28T06:15:33;6.50;44.20
28087;DHT22;15392;48.912;8.380;2023-02-28T06:17:59;6.50;44.20
28087;DHT22;15392;48.912;8.380;2023-02-28T06:20:26;6.50;44.20
28087;DHT22;15392;48.912;8.380;2023-02-28T06:22:56;6.50;44.30
28087;DHT22;15392;48.912;8.380;2023-02-28T06:25:24;6.50;44.30
28087;DHT22;15392;48.912;8.380;2023-02-28T06:27:50;6.50;44.30
28087;DHT22;15392;48.912;8.380;2023-02-28T06:30:16;6.50;44.30
28087;DHT22;15392;48.912;8.380;2023-02-28T06:32:42;6.50;44.30
28087;DHT22;15392;48.912;8.380;2023-02-28T06:35:08;6.40;44.30
28087;DHT22;15392;48.912;8.380;2023-02-28T06:37:34;6.50;44.30
28087;DHT22;15392;48.912;8.380;2023-02-28T06:39:59;6.40;44.30
28087;DHT22;15392;48.912;8.380;2023-02-28T06:42:25;6.40;44.30
28087;DHT22;15392;48.912;8.380;2023-02-28T06:44:57;6.40;44.30
28087;DHT22;15392;48.912;8.380;2023-02-28T06:47:23;6.40;45.00
28087;DHT22;15392;48.912;8.380;2023-02-28T06:49:50;6.50;44.40
28087;DHT22;15392;48.912;8.380;2023-02-28T06:52:15;6.40;44.40
28087;DHT22;15392;48.912;8.380;2023-02-28T06:54:41;6.40;44.30
28087;DHT22;15392;48.912;8.380;2023-02-28T06:57:07;6.40;44.30
28087;DHT22;15392;48.912;8.380;2023-02-28T06:59:33;6.40;44.30
28087;DHT22;15392;48.912;8.380;2023-02-28T07:02:00;6.40;44.30
28087;DHT22;15392;48.912;8.380;2023-02-28T07:04:27;6.40;44.30
28087;DHT22;15392;48.912;8.380;2023-02-28T07:06:54;6.40;44.40
28087;DHT22;15392;48.912;8.380;2023-02-28T07:09:22;6.40;44.40
28087;DHT22;15392;48.912;8.380;2023-02-28T07:11:48;6.40;44.40
28087;DHT22;15392;48.912;8.380;2023-02-28T07:14:14;6.40;44.40
28087;DHT22;15392;48.912;8.380;2023-02-28T07:16:40;6.40;44.40
28087;DHT22;15392;48.912;8.380;2023-02-28T07:19:06;6.40;44.40
28087;DHT22;15392;48.912;8.380;2023-02-28T07:21:31;6.40;44.50
28087;DHT22;15392;48.912;8.380;2023-02-28T07:23:57;6.50;44.50
28087;DHT22;15392;48.912;8.380;2023-02-28T07:26:23;6.40;44.40
28087;DHT22;15392;48.912;8.380;2023-02-28T07:28:49;6.50;44.40
28087;DHT22;15392;48.912;8.380;2023-02-28T07:31:15;6.50;44.40
28087;DHT22;15392;48.912;8.380;2023-02-28T07:33:42;6.50;44.40
28087;DHT22;15392;48.912;8.380;2023-02-28T07:36:13;6.40;44.30
28087;DHT22;15392;48.912;8.380;2023-02-28T07:38:41;6.50;44.40
28087;DHT22;15392;48.912;8.380;2023-02-28T07:41:08;6.50;44.40
28087;DHT22;15392;48.912;8.380;2023-02-28T07:43:35;6.50;44.40
28087;DHT22;15392;48.912;8.380;2023-02-28T07:46:06;6.50;44.40
28087;DHT22;15392;48.912;8.380;2023-02-28T07:48:37;6.50;44.40
28087;DHT22;15392;48.912;8.380;2023-02-28T07:51:03;6.50;44.40
28087;DHT22;15392;48.912;8.380;2023-02-28T07:53:29;6.50;44.40
28087;DHT22;15392;48.912;8.380;2023-02-28T07:55:56;6.50;44.40
28087;DHT22;15392;48.912;8.380;2023-02-28T07:58:24;6.50;44.40
28087;DHT22;15392;48.912;8.380;2023-02-28T08:00:50;6.50;44.40
28087;DHT22;15392;48.912;8.380;2023-02-28T08:03:18;6.50;44.30
28087;DHT22;15392;48.912;8.380;2023-02-28T08:05:45;6.50;44.30
28087;DHT22;15392;48.912;8.380;2023-02-28T08:08:11;6.50;44.30
28087;DHT22;15392;48.912;8.380;2023-02-28T08:10:37;6.50;44.40
28087;DHT22;15392;48.912;8.380;2023-02-28T08:13:03;6.50;44.40
28087;DHT22;15392;48.912;8.380;2023-02-28T08:15:29;6.50;44.30
28087;DHT22;15392;48.912;8.380;2023-02-28T08:17:54;6.50;44.30
28087;DHT22;15392;48.912;8.380;2023-02-28T08:20:22;6.60;44.40
28087;DHT22;15392;48.912;8.380;2023-02-28T08:22:48;6.50;44.20
28087;DHT22;15392;48.912;8.380;2023-02-28T08:25:14;6.60;44.30
28087;DHT22;15392;48.912;8.380;2023-02-28T08:27:40;6.50;44.20
28087;DHT22;15392;48.912;8.380;2023-02-28T08:30:06;6.50;44.30
28087;DHT22;15392;48.912;8.380;2023-02-28T08:32:33;6.60;44.30
28087;DHT22;15392;48.912;8.380;2023-02-28T08:34:59;6.60;44.30
28087;DHT22;15392;48.912;8.380;2023-02-28T08:37:25;6.60;44.30
28087;DHT22;15392;48.912;8.380;2023-02-28T08:39:51;6.60;44.30
28087;DHT22;15392;48.912;8.380;2023-02-28T08:42:17;6.50;44.20
28087;DHT22;15392;48.912;8.380;2023-02-28T08:44:42;6.60;44.30
28087;DHT22;15392;48.912;8.380;2023-02-28T08:47:08;6.60;44.30
28087;DHT22;15392;48.912;8.380;2023-02-28T08:49:34;6.60;44.30
28087;DHT22;15392;48.912;8.380;2023-02-28T08:52:00;6.60;44.30
28087;DHT22;15392;48.912;8.380;2023-02-28T08:54:25;6.60;44.40
28087;DHT22;15392;48.912;8.380;2023-02-28T08:56:51;6.60;44.30
28087;DHT22;15392;48.912;8.380;2023-02-28T08:59:17;6.60;44.30
28087;DHT22;15392;48.912;8.380;2023-02-28T09:01:43;6.70;44.40
28087;DHT22;15392;48.912;8.380;2023-02-28T09:04:09;6.70;44.40
28087;DHT22;15392;48.912;8.380;2023-02-28T09:06:36;6.70;44.40
28087;DHT22;15392;48.912;8.380;2023-02-28T09:09:03;6.70;44.40
28087;DHT22;15392;48.912;8.380;2023-02-28T09:11:31;6.70;44.40
28087;DHT22;15392;48.912;8.380;2023-02-28T09:13:58;6.70;44.30
28087;DHT22;15392;48.912;8.380;2023-02-28T09:16:25;6.80;44.30
28087;DHT22;15392;48.912;8.380;2023-02-28T09:18:51;6.80;44.30
28087;DHT22;15392;48.912;8.380;2023-02-28T09:21:18;6.80;44.30
28087;DHT22;15392;48.912;8.380;2023-02-28T09:23:45;6.80;44.30
28087;DHT22;15392;48.912;8.380;2023-02-28T09:26:22;6.80;44.30
28087;DHT22;15392;48.912;8.380;2023-02-28T09:28:50;6.80;44.30
28087;DHT22;15392;48.912;8.380;2023-02-28T09:31:20;6.90;44.40
28087;DHT22;15392;48.912;8.380;2023-02-28T09:33:53;6.90;44.40
28087;DHT22;15392;48.912;8.380;2023-02-28T09:36:20;6.90;44.40
28087;DHT22;15392;48.912;8.380;2023-02-28T09:38:47;6.90;44.40
28087;DHT22;15392;48.912;8.380;2023-02-28T09:41:19;6.90;44.30
28087;DHT22;15392;48.912;8.380;2023-02-28T09:43:53;6.90;44.20
28087;DHT22;15392;48.912;8.380;2023-02-28T09:46:46;7.00;44.30
28087;DHT22;15392;48.912;8.380;2023-02-28T09:49:23;7.00;44.30
28087;DHT22;15392;48.912;8.380;2023-02-28T09:54:30;7.00;44.30
28087;DHT22;15392;48.912;8.380;2023-02-28T09:57:18;7.10;44.30
28087;DHT22;15392;48.912;8.380;2023-02-28T10:00:04;7.10;44.20
28087;DHT22;15392;48.912;8.380;2023-02-28T10:03:03;7.10;44.20
28087;DHT22;15392;48.912;8.380;2023-02-28T10:05:43;7.10;44.20
28087;DHT22;15392;48.912;8.380;2023-02-28T10:08:26;7.10;44.20
28087;DHT22;15392;48.912;8.380;2023-02-28T10:10:57;7.10;44.20
28087;DHT22;15392;48.912;8.380;2023-02-28T10:13:38;7.20;44.20
28087;DHT22;15392;48.912;8.380;2023-02-28T10:16:33;7.20;44.10
28087;DHT22;15392;48.912;8.380;2023-02-28T10:19:06;7.20;44.20
28087;DHT22;15392;48.912;8.380;2023-02-28T10:21:47;7.20;44.10
28087;DHT22;15392;48.912;8.380;2023-02-28T10:24:37;7.30;44.20
28087;DHT22;15392;48.912;8.380;2023-02-28T10:27:23;7.30;44.10
28087;DHT22;15392;48.912;8.380;2023-02-28T10:29:55;7.30;43.90
28087;DHT22;15392;48.912;8.380;2023-02-28T10:32:36;7.30;44.10
28087;DHT22;15392;48.912;8.380;2023-02-28T10:37:55;7.40;43.90
28087;DHT22;15392;48.912;8.380;2023-02-28T10:43:00;7.40;43.80
28087;DHT22;15392;48.912;8.380;2023-02-28T10:45:28;7.50;43.70
28087;DHT22;15392;48.912;8.380;2023-02-28T10:51:13;7.50;43.40
28087;DHT22;15392;48.912;8.380;2023-02-28T10:53:24;7.50;43.60
28087;DHT22;15392;48.912;8.380;2023-02-28T10:58:56;7.50;43.50
28087;DHT22;15392;48.912;8.380;2023-02-28T11:04:19;7.60;43.40
28087;DHT22;15392;48.912;8.380;2023-02-28T11:07:16;7.60;43.50
28087;DHT22;15392;48.912;8.380;2023-02-28T11:09:46;7.60;43.40
28087;DHT22;15392;48.912;8.380;2023-02-28T11:12:28;7.60;43.60
28087;DHT22;15392;48.912;8.380;2023-02-28T11:15:05;7.70;43.60
28087;DHT22;15392;48.912;8.380;2023-02-28T11:17:59;7.70;43.70
28087;DHT22;15392;48.912;8.380;2023-02-28T11:20:38;7.80;43.70
28087;DHT22;15392;48.912;8.380;2023-02-28T11:23:11;7.80;43.40
28087;DHT22;15392;48.912;8.380;2023-02-28T11:25:39;7.80;43.50
28087;DHT22;15392;48.912;8.380;2023-02-28T11:28:22;7.90;43.70
28087;DHT22;15392;48.912;8.380;2023-02-28T11:33:55;8.00;43.50
28087;DHT22;15392;48.912;8.380;2023-02-28T11:36:23;8.00;43.50
28087;DHT22;15392;48.912;8.380;2023-02-28T11:38:56;8.10;43.60
28087;DHT22;15392;48.912;8.380;2023-02-28T11:53:14;8.30;43.20
28087;DHT22;15392;48.912;8.380;2023-02-28T11:55:59;8.30;43.40
28087;DHT22;15392;48.912;8.380;2023-02-28T12:12:41;8.60;43.00
28087;DHT22;15392;48.912;8.380;2023-02-28T12:26:37;8.80;43.10
28087;DHT22;15392;48.912;8.380;2023-02-28T12:29:29;8.90;43.40
28087;DHT22;15392;48.912;8.380;2023-02-28T12:32:04;8.90;43.10
28087;DHT22;15392;48.912;8.380;2023-02-28T12:34:44;9.00;43.30
28087;DHT22;15392;48.912;8.380;2023-02-28T12:37:19;9.00;43.30
28087;DHT22;15392;48.912;8.380;2023-02-28T12:39:54;9.00;43.20
28087;DHT22;15392;48.912;8.380;2023-02-28T12:42:27;9.10;43.10
28087;DHT22;15392;48.912;8.380;2023-02-28T12:45:17;9.10;43.10
28087;DHT22;15392;48.912;8.380;2023-02-28T12:47:46;9.10;42.80
28087;DHT22;15392;48.912;8.380;2023-02-28T12:50:16;9.10;42.80
28087;DHT22;15392;48.912;8.380;2023-02-28T12:53:02;9.20;43.80
28087;DHT22;15392;48.912;8.380;2023-02-28T12:58:34;9.20;43.10
28087;DHT22;15392;48.912;8.380;2023-02-28T13:07:37;9.20;42.80
28087;DHT22;15392;48.912;8.380;2023-02-28T13:10:08;9.20;42.80
28087;DHT22;15392;48.912;8.380;2023-02-28T13:12:35;9.20;43.00
28087;DHT22;15392;48.912;8.380;2023-02-28T13:15:22;9.20;43.00
28087;DHT22;15392;48.912;8.380;2023-02-28T13:17:56;9.30;42.90
28087;DHT22;15392;48.912;8.380;2023-02-28T13:20:26;9.30;43.00
28087;DHT22;15392;48.912;8.380;2023-02-28T13:22:59;9.30;43.00
28087;DHT22;15392;48.912;8.380;2023-02-28T13:28:13;9.40;42.70
28087;DHT22;15392;48.912;8.380;2023-02-28T13:31:13;9.40;43.00
28087;DHT22;15392;48.912;8.380;2023-02-28T13:38:58;9.40;42.90
28087;DHT22;15392;48.912;8.380;2023-02-28T13:44:21;9.50;42.80
28087;DHT22;15392;48.912;8.380;2023-02-28T13:51:55;9.50;42.70
28087;DHT22;15392;48.912;8.380;2023-02-28T13:54:57;9.60;42.90
28087;DHT22;15392;48.912;8.380;2023-02-28T13:58:08;9.60;42.50
28087;DHT22;15392;48.912;8.380;2023-02-28T14:06:48;9.70;42.70
28087;DHT22;15392;48.912;8.380;2023-02-28T14:09:41;9.70;42.70
28087;DHT22;15392;48.912;8.380;2023-02-28T14:17:57;9.80;43.40
28087;DHT22;15392;48.912;8.380;2023-02-28T14:20:27;9.80;43.00
28087;DHT22;15392;48.912;8.380;2023-02-28T14:37:53;10.00;42.70
28087;DHT22;15392;48.912;8.380;2023-02-28T14:40:32;10.00;42.80
28087;DHT22;15392;48.912;8.380;2023-02-28T14:43:01;10.00;42.50
28087;DHT22;15392;48.912;8.380;2023-02-28T14:45:34;10.10;42.70
28087;DHT22;15392;48.912;8.380;2023-02-28T14:48:18;10.10;42.70
28087;DHT22;15392;48.912;8.380;2023-02-28T14:50:51;10.10;42.90
28087;DHT22;15392;48.912;8.380;2023-02-28T14:53:19;10.10;42.70
28087;DHT22;15392;48.912;8.380;2023-02-28T14:55:48;10.10;42.70
28087;DHT22;15392;48.912;8.380;2023-02-28T14:58:27;10.20;42.70
28087;DHT22;15392;48.912;8.380;2023-02-28T15:00:56;10.20;42.60
28087;DHT22;15392;48.912;8.380;2023-02-28T15:03:27;10.20;42.70
28087;DHT22;15392;48.912;8.380;2023-02-28T15:06:04;10.20;42.80
28087;DHT22;15392;48.912;8.380;2023-02-28T15:08:32;10.20;42.70
28087;DHT22;15392;48.912;8.380;2023-02-28T15:11:05;10.20;42.70
28087;DHT22;15392;48.912;8.380;2023-02-28T15:13:41;10.30;42.60
28087;DHT22;15392;48.912;8.380;2023-02-28T15:16:16;10.30;42.50
28087;DHT22;15392;48.912;8.380;2023-02-28T15:18:48;10.30;42.60
28087;DHT22;15392;48.912;8.380;2023-02-28T15:21:22;10.30;42.70
28087;DHT22;15392;48.912;8.380;2023-02-28T15:24:04;10.30;42.70
28087;DHT22;15392;48.912;8.380;2023-02-28T15:26:53;10.40;42.70
28087;DHT22;15392;48.912;8.380;2023-02-28T15:29:23;10.30;42.80
28087;DHT22;15392;48.912;8.380;2023-02-28T15:32:02;10.30;42.50
28087;DHT22;15392;48.912;8.380;2023-02-28T15:34:40;10.40;42.40
28087;DHT22;15392;48.912;8.380;2023-02-28T15:37:29;10.40;42.50
28087;DHT22;15392;48.912;8.380;2023-02-28T15:40:12;10.40;42.30
28087;DHT22;15392;48.912;8.380;2023-02-28T15:42:41;10.40;42.40
28087;DHT22;15392;48.912;8.380;2023-02-28T15:45:32;10.40;42.60
28087;DHT22;15392;48.912;8.380;2023-02-28T15:48:15;10.40;42.20
28087;DHT22;15392;48.912;8.380;2023-02-28T15:50:57;10.40;42.60
28087;DHT22;15392;48.912;8.380;2023-02-28T15:54:01;10.40;42.40
28087;DHT22;15392;48.912;8.380;2023-02-28T15:56:32;10.40;42.40
28087;DHT22;15392;48.912;8.380;2023-02-28T15:59:06;10.40;42.60
28087;DHT22;15392;48.912;8.380;2023-02-28T16:01:34;10.40;42.60
28087;DHT22;15392;48.912;8.380;2023-02-28T16:04:14;10.50;42.60
28087;DHT22;15392;48.912;8.380;2023-02-28T16:06:45;10.50;42.60
28087;DHT22;15392;48.912;8.380;2023-02-28T16:09:23;10.50;42.60
28087;DHT22;15392;48.912;8.380;2023-02-28T16:11:52;10.50;42.60
28087;DHT22;15392;48.912;8.380;2023-02-28T16:14:22;10.50;42.40
28087;DHT22;15392;48.912;8.380;2023-02-28T16:16:53;10.50;42.40
28087;DHT22;15392;48.912;8.380;2023-02-28T16:19:20;10.50;42.40
28087;DHT22;15392;48.912;8.380;2023-02-28T16:21:47;10.50;42.40
28087;DHT22;15392;48.912;8.380;2023-02-28T16:24:13;10.50;42.40
28087;DHT22;15392;48.912;8.380;2023-02-28T16:26:41;10.50;42.40
28087;DHT22;15392;48.912;8.380;2023-02-28T16:29:09;10.50;42.30
28087;DHT22;15392;48.912;8.380;2023-02-28T16:31:39;10.50;42.30
28087;DHT22;15392;48.912;8.380;2023-02-28T16:34:05;10.50;42.40
28087;DHT22;15392;48.912;8.380;2023-02-28T16:36:31;10.50;42.40
28087;DHT22;15392;48.912;8.380;2023-02-28T16:38:57;10.50;42.40
28087;DHT22;15392;48.912;8.380;2023-02-28T16:41:25;10.40;42.40
28087;DHT22;15392;48.912;8.380;2023-02-28T16:43:54;10.50;42.30
28087;DHT22;15392;48.912;8.380;2023-02-28T16:46:29;10.50;42.30
28087;DHT22;15392;48.912;8.380;2023-02-28T16:48:57;10.50;42.30
28087;DHT22;15392;48.912;8.380;2023-02-28T16:51:23;10.50;42.40
28087;DHT22;15392;48.912;8.380;2023-02-28T16:53:48;10.40;42.30
28087;DHT22;15392;48.912;8.380;2023-02-28T16:56:17;10.40;42.30
28087;DHT22;15392;48.912;8.380;2023-02-28T16:58:44;10.40;42.20
28087;DHT22;15392;48.912;8.380;2023-02-28T17:01:11;10.40;42.30
28087;DHT22;15392;48.912;8.380;2023-02-28T17:03:36;10.40;42.30
28087;DHT22;15392;48.912;8.380;2023-02-28T17:06:03;10.40;42.20
28087;DHT22;15392;48.912;8.380;2023-02-28T17:08:30;10.40;42.20
28087;DHT22;15392;48.912;8.380;2023-02-28T17:10:58;10.40;42.20
28087;DHT22;15392;48.912;8.380;2023-02-28T17:13:24;10.40;42.20
28087;DHT22;15392;48.912;8.380;2023-02-28T17:15:50;10.30;42.20
28087;DHT22;15392;48.912;8.380;2023-02-28T17:18:18;10.30;42.20
28087;DHT22;15392;48.912;8.380;2023-02-28T17:20:45;10.30;42.20
28087;DHT22;15392;48.912;8.380;2023-02-28T17:23:11;10.30;42.30
28087;DHT22;15392;48.912;8.380;2023-02-28T17:25:37;10.30;42.30
28087;DHT22;15392;48.912;8.380;2023-02-28T17:28:03;10.30;42.30
28087;DHT22;15392;48.912;8.380;2023-02-28T17:30:31;10.20;42.30
28087;DHT22;15392;48.912;8.380;2023-02-28T17:32:58;10.20;42.30
28087;DHT22;15392;48.912;8.380;2023-02-28T17:35:24;10.30;42.30
28087;DHT22;15392;48.912;8.380;2023-02-28T17:37:52;10.20;42.30
28087;DHT22;15392;48.912;8.380;2023-02-28T17:40:20;10.20;42.30
28087;DHT22;15392;48.912;8.380;2023-02-28T17:42:47;10.20;42.30
28087;DHT22;15392;48.912;8.380;2023-02-28T17:45:15;10.20;42.30
28087;DHT22;15392;48.912;8.380;2023-02-28T17:47:43;10.20;42.30
28087;DHT22;15392;48.912;8.380;2023-02-28T17:50:18;10.20;42.30
28087;DHT22;15392;48.912;8.380;2023-02-28T17:52:45;10.20;42.20
28087;DHT22;15392;48.912;8.380;2023-02-28T17:55:12;10.10;42.30
28087;DHT22;15392;48.912;8.380;2023-02-28T17:57:38;10.10;42.30
28087;DHT22;15392;48.912;8.380;2023-02-28T18:00:05;10.10;42.30
28087;DHT22;15392;48.912;8.380;2023-02-28T18:02:32;10.10;42.30
28087;DHT22;15392;48.912;8.380;2023-02-28T18:04:58;10.10;42.30
28087;DHT22;15392;48.912;8.380;2023-02-28T18:07:24;10.10;42.30
28087;DHT22;15392;48.912;8.380;2023-02-28T18:09:50;10.00;42.30
28087;DHT22;15392;48.912;8.380;2023-02-28T18:12:16;10.00;42.30
28087;DHT22;15392;48.912;8.380;2023-02-28T18:14:42;10.00;42.30
28087;DHT22;15392;48.912;8.380;2023-02-28T18:17:09;10.00;42.30
28087;DHT22;15392;48.912;8.380;2023-02-28T18:19:37;10.00;42.30